sensor_id;sensor_type;location;lat;lon;timestamp;P1;durP1;ratioP1;P2;durP2;ratioP2
59492;SDS011;45497;43.996;22.876;2022-10-31T00:00:51;6.40;;;4.30;;
59492;SDS011;45497;43.996;22.876;2022-10-31T00:03:17;8.85;;;4.50;;
59492;SDS011;45497;43.996;22.876;2022-10-31T00:05:43;6.63;;;4.20;;
59492;SDS011;45497;43.996;22.876;2022-10-31T00:08:10;7.22;;;4.22;;
59492;SDS011;45497;43.996;22.876;2022-10-31T00:10:39;9.32;;;4.60;;
59492;SDS011;45497;43.996;22.876;2022-10-31T00:13:07;7.82;;;4.72;;
59492;SDS011;45497;43.996;22.876;2022-10-31T00:15:33;7.60;;;4.70;;
59492;SDS011;45497;43.996;22.876;2022-10-31T00:18:00;8.70;;;4.60;;
59492;SDS011;45497;43.996;22.876;2022-10-31T00:20:26;9.00;;;4.47;;
59492;SDS011;45497;43.996;22.876;2022-10-31T00:22:51;8.73;;;5.20;;
59492;SDS011;45497;43.996;22.876;2022-10-31T00:25:17;8.87;;;5.10;;
59492;SDS011;45497;43.996;22.876;2022-10-31T00:27:42;7.75;;;4.60;;
59492;SDS011;45497;43.996;22.876;2022-10-31T00:30:11;7.35;;;4.68;;
59492;SDS011;45497;43.996;22.876;2022-10-31T00:32:36;6.70;;;4.60;;
59492;SDS011;45497;43.996;22.876;2022-10-31T00:35:02;9.07;;;4.80;;
59492;SDS011;45497;43.996;22.876;2022-10-31T00:37:27;8.25;;;5.20;;
59492;SDS011;45497;43.996;22.876;2022-10-31T00:39:53;9.60;;;4.97;;
59492;SDS011;45497;43.996;22.876;2022-10-31T00:42:18;7.80;;;4.67;;
59492;SDS011;45497;43.996;22.876;2022-10-31T00:44:44;7.88;;;4.85;;
59492;SDS011;45497;43.996;22.876;2022-10-31T00:47:09;8.73;;;4.97;;
59492;SDS011;45497;43.996;22.876;2022-10-31T00:49:35;9.70;;;5.20;;
59492;SDS011;45497;43.996;22.876;2022-10-31T00:52:00;8.67;;;5.37;;
59492;SDS011;45497;43.996;22.876;2022-10-31T00:54:26;13.13;;;7.20;;
59492;SDS011;45497;43.996;22.876;2022-10-31T00:56:51;10.82;;;5.85;;
59492;SDS011;45497;43.996;22.876;2022-10-31T00:59:16;11.57;;;5.37;;
59492;SDS011;45497;43.996;22.876;2022-10-31T01:01:42;10.10;;;5.20;;
59492;SDS011;45497;43.996;22.876;2022-10-31T01:04:07;8.07;;;5.33;;
59492;SDS011;45497;43.996;22.876;2022-10-31T01:06:33;11.47;;;4.93;;
59492;SDS011;45497;43.996;22.876;2022-10-31T01:08:58;9.77;;;5.30;;
59492;SDS011;45497;43.996;22.876;2022-10-31T01:11:24;10.00;;;5.00;;
59492;SDS011;45497;43.996;22.876;2022-10-31T01:13:50;10.20;;;4.93;;
59492;SDS011;45497;43.996;22.876;2022-10-31T01:16:18;11.80;;;5.18;;
59492;SDS011;45497;43.996;22.876;2022-10-31T01:18:45;8.40;;;5.32;;
59492;SDS011;45497;43.996;22.876;2022-10-31T01:21:12;10.50;;;5.50;;
59492;SDS011;45497;43.996;22.876;2022-10-31T01:23:40;11.27;;;5.65;;
59492;SDS011;45497;43.996;22.876;2022-10-31T01:26:07;9.60;;;5.25;;
59492;SDS011;45497;43.996;22.876;2022-10-31T01:28:42;8.80;;;5.20;;
59492;SDS011;45497;43.996;22.876;2022-10-31T01:31:10;9.00;;;4.90;;
59492;SDS011;45497;43.996;22.876;2022-10-31T01:33:36;7.60;;;5.10;;
59492;SDS011;45497;43.996;22.876;2022-10-31T01:36:10;7.57;;;4.80;;
59492;SDS011;45497;43.996;22.876;2022-10-31T01:38:57;8.50;;;5.13;;
59492;SDS011;45497;43.996;22.876;2022-10-31T01:41:26;8.32;;;5.05;;
59492;SDS011;45497;43.996;22.876;2022-10-31T01:43:58;8.23;;;4.75;;
59492;SDS011;45497;43.996;22.876;2022-10-31T01:46:32;8.57;;;5.00;;
59492;SDS011;45497;43.996;22.876;2022-10-31T01:49:04;9.87;;;4.93;;
59492;SDS011;45497;43.996;22.876;2022-10-31T01:51:35;8.30;;;5.00;;
59492;SDS011;45497;43.996;22.876;2022-10-31T01:54:07;7.63;;;4.95;;
59492;SDS011;45497;43.996;22.876;2022-10-31T01:56:37;8.07;;;4.90;;
59492;SDS011;45497;43.996;22.876;2022-10-31T01:59:06;7.82;;;4.97;;
59492;SDS011;45497;43.996;22.876;2022-10-31T02:01:35;9.05;;;4.93;;
59492;SDS011;45497;43.996;22.876;2022-10-31T02:04:01;8.35;;;4.90;;
59492;SDS011;45497;43.996;22.876;2022-10-31T02:06:35;8.90;;;5.10;;
59492;SDS011;45497;43.996;22.876;2022-10-31T02:09:24;8.50;;;5.47;;
59492;SDS011;45497;43.996;22.876;2022-10-31T02:11:54;6.75;;;4.60;;
59492;SDS011;45497;43.996;22.876;2022-10-31T02:14:23;12.40;;;5.50;;
59492;SDS011;45497;43.996;22.876;2022-10-31T02:16:50;8.35;;;5.18;;
59492;SDS011;45497;43.996;22.876;2022-10-31T02:19:18;10.48;;;5.47;;
59492;SDS011;45497;43.996;22.876;2022-10-31T02:33:08;9.40;;;5.40;;
59492;SDS011;45497;43.996;22.876;2022-10-31T02:36:24;7.70;;;5.00;;
59492;SDS011;45497;43.996;22.876;2022-10-31T02:41:44;12.23;;;8.02;;
59492;SDS011;45497;43.996;22.876;2022-10-31T02:47:05;10.70;;;5.70;;
59492;SDS011;45497;43.996;22.876;2022-10-31T02:52:25;8.15;;;5.50;;
59492;SDS011;45497;43.996;22.876;2022-10-31T02:54:55;8.63;;;5.30;;
59492;SDS011;45497;43.996;22.876;2022-10-31T02:57:31;8.90;;;5.57;;
59492;SDS011;45497;43.996;22.876;2022-10-31T03:00:06;10.68;;;5.20;;
59492;SDS011;45497;43.996;22.876;2022-10-31T03:05:23;10.85;;;5.07;;
59492;SDS011;45497;43.996;22.876;2022-10-31T03:08:02;7.65;;;5.07;;
59492;SDS011;45497;43.996;22.876;2022-10-31T03:10:39;12.13;;;5.83;;
59492;SDS011;45497;43.996;22.876;2022-10-31T03:15:43;8.68;;;4.90;;
59492;SDS011;45497;43.996;22.876;2022-10-31T03:18:17;8.83;;;4.97;;
59492;SDS011;45497;43.996;22.876;2022-10-31T03:20:53;10.20;;;4.90;;
59492;SDS011;45497;43.996;22.876;2022-10-31T03:23:24;7.87;;;5.10;;
59492;SDS011;45497;43.996;22.876;2022-10-31T03:25:52;11.65;;;5.47;;
59492;SDS011;45497;43.996;22.876;2022-10-31T03:28:21;10.27;;;5.82;;
59492;SDS011;45497;43.996;22.876;2022-10-31T03:30:53;8.60;;;5.38;;
59492;SDS011;45497;43.996;22.876;2022-10-31T03:33:21;9.75;;;5.57;;
59492;SDS011;45497;43.996;22.876;2022-10-31T03:35:54;9.50;;;5.28;;
59492;SDS011;45497;43.996;22.876;2022-10-31T03:38:23;8.60;;;5.47;;
59492;SDS011;45497;43.996;22.876;2022-10-31T03:40:49;8.27;;;5.33;;
59492;SDS011;45497;43.996;22.876;2022-10-31T03:43:19;9.95;;;6.47;;
59492;SDS011;45497;43.996;22.876;2022-10-31T03:45:49;9.25;;;5.60;;
59492;SDS011;45497;43.996;22.876;2022-10-31T03:48:16;9.20;;;5.90;;
59492;SDS011;45497;43.996;22.876;2022-10-31T03:53:55;8.30;;;5.40;;
59492;SDS011;45497;43.996;22.876;2022-10-31T03:58:58;8.97;;;5.50;;
59492;SDS011;45497;43.996;22.876;2022-10-31T04:01:30;10.05;;;5.90;;
59492;SDS011;45497;43.996;22.876;2022-10-31T04:03:59;9.18;;;5.63;;
59492;SDS011;45497;43.996;22.876;2022-10-31T04:06:27;7.53;;;5.20;;
59492;SDS011;45497;43.996;22.876;2022-10-31T04:08:56;9.70;;;5.47;;
59492;SDS011;45497;43.996;22.876;2022-10-31T04:11:27;10.35;;;5.53;;
59492;SDS011;45497;43.996;22.876;2022-10-31T04:13:55;7.82;;;5.45;;
59492;SDS011;45497;43.996;22.876;2022-10-31T04:16:25;10.10;;;5.30;;
59492;SDS011;45497;43.996;22.876;2022-10-31T04:18:52;9.07;;;5.57;;
59492;SDS011;45497;43.996;22.876;2022-10-31T04:21:18;10.80;;;7.00;;
59492;SDS011;45497;43.996;22.876;2022-10-31T04:23:43;10.98;;;7.50;;
59492;SDS011;45497;43.996;22.876;2022-10-31T04:26:12;13.40;;;9.87;;
59492;SDS011;45497;43.996;22.876;2022-10-31T04:28:37;11.10;;;8.48;;
59492;SDS011;45497;43.996;22.876;2022-10-31T04:31:04;13.80;;;8.27;;
59492;SDS011;45497;43.996;22.876;2022-10-31T04:33:29;14.30;;;9.40;;
59492;SDS011;45497;43.996;22.876;2022-10-31T04:35:55;12.60;;;9.80;;
59492;SDS011;45497;43.996;22.876;2022-10-31T04:38:21;12.32;;;8.27;;
59492;SDS011;45497;43.996;22.876;2022-10-31T04:40:46;11.93;;;6.30;;
59492;SDS011;45497;43.996;22.876;2022-10-31T04:43:12;13.82;;;6.63;;
59492;SDS011;45497;43.996;22.876;2022-10-31T04:45:37;10.53;;;6.47;;
59492;SDS011;45497;43.996;22.876;2022-10-31T04:48:03;13.50;;;7.32;;
59492;SDS011;45497;43.996;22.876;2022-10-31T04:50:29;12.32;;;6.63;;
59492;SDS011;45497;43.996;22.876;2022-10-31T04:52:55;12.93;;;6.87;;
59492;SDS011;45497;43.996;22.876;2022-10-31T04:55:20;15.27;;;7.03;;
59492;SDS011;45497;43.996;22.876;2022-10-31T04:57:46;10.73;;;6.90;;
59492;SDS011;45497;43.996;22.876;2022-10-31T05:00:14;13.10;;;6.80;;
59492;SDS011;45497;43.996;22.876;2022-10-31T05:02:47;9.90;;;5.80;;
59492;SDS011;45497;43.996;22.876;2022-10-31T05:05:18;9.87;;;5.63;;
59492;SDS011;45497;43.996;22.876;2022-10-31T05:07:45;8.98;;;5.88;;
59492;SDS011;45497;43.996;22.876;2022-10-31T05:10:17;9.50;;;5.80;;
59492;SDS011;45497;43.996;22.876;2022-10-31T05:12:55;13.73;;;6.93;;
59492;SDS011;45497;43.996;22.876;2022-10-31T05:15:27;11.33;;;7.20;;
59492;SDS011;45497;43.996;22.876;2022-10-31T05:17:53;11.82;;;6.60;;
59492;SDS011;45497;43.996;22.876;2022-10-31T05:20:20;15.25;;;7.03;;
59492;SDS011;45497;43.996;22.876;2022-10-31T05:22:54;15.32;;;7.00;;
59492;SDS011;45497;43.996;22.876;2022-10-31T05:25:21;14.97;;;6.40;;
59492;SDS011;45497;43.996;22.876;2022-10-31T05:27:50;13.10;;;6.20;;
59492;SDS011;45497;43.996;22.876;2022-10-31T05:30:18;10.20;;;7.07;;
59492;SDS011;45497;43.996;22.876;2022-10-31T05:32:48;10.50;;;6.13;;
59492;SDS011;45497;43.996;22.876;2022-10-31T05:35:19;9.93;;;6.13;;
59492;SDS011;45497;43.996;22.876;2022-10-31T05:37:56;10.20;;;5.95;;
59492;SDS011;45497;43.996;22.876;2022-10-31T05:40:25;10.38;;;6.05;;
59492;SDS011;45497;43.996;22.876;2022-10-31T05:42:52;11.13;;;6.67;;
59492;SDS011;45497;43.996;22.876;2022-10-31T05:45:19;14.83;;;7.53;;
59492;SDS011;45497;43.996;22.876;2022-10-31T05:47:55;14.93;;;7.80;;
59492;SDS011;45497;43.996;22.876;2022-10-31T05:50:22;12.48;;;7.55;;
59492;SDS011;45497;43.996;22.876;2022-10-31T05:53:02;19.17;;;13.75;;
59492;SDS011;45497;43.996;22.876;2022-10-31T05:55:30;23.42;;;15.52;;
59492;SDS011;45497;43.996;22.876;2022-10-31T05:57:56;21.97;;;14.60;;
59492;SDS011;45497;43.996;22.876;2022-10-31T06:00:22;20.07;;;13.97;;
59492;SDS011;45497;43.996;22.876;2022-10-31T06:02:48;18.65;;;11.18;;
59492;SDS011;45497;43.996;22.876;2022-10-31T06:05:14;17.30;;;10.47;;
59492;SDS011;45497;43.996;22.876;2022-10-31T06:07:41;16.08;;;8.60;;
59492;SDS011;45497;43.996;22.876;2022-10-31T06:10:07;15.70;;;8.85;;
59492;SDS011;45497;43.996;22.876;2022-10-31T06:12:33;18.42;;;11.32;;
59492;SDS011;45497;43.996;22.876;2022-10-31T06:15:03;18.70;;;12.48;;
59492;SDS011;45497;43.996;22.876;2022-10-31T06:17:37;21.50;;;13.98;;
59492;SDS011;45497;43.996;22.876;2022-10-31T06:20:02;24.03;;;14.73;;
59492;SDS011;45497;43.996;22.876;2022-10-31T06:22:29;23.43;;;14.57;;
59492;SDS011;45497;43.996;22.876;2022-10-31T06:24:55;23.23;;;14.07;;
59492;SDS011;45497;43.996;22.876;2022-10-31T06:27:25;21.93;;;13.63;;
59492;SDS011;45497;43.996;22.876;2022-10-31T06:29:52;23.77;;;12.20;;
59492;SDS011;45497;43.996;22.876;2022-10-31T06:32:18;22.97;;;14.10;;
59492;SDS011;45497;43.996;22.876;2022-10-31T06:34:44;27.02;;;15.65;;
59492;SDS011;45497;43.996;22.876;2022-10-31T06:37:14;34.58;;;22.90;;
59492;SDS011;45497;43.996;22.876;2022-10-31T06:39:40;50.35;;;31.73;;
59492;SDS011;45497;43.996;22.876;2022-10-31T06:42:06;29.50;;;17.65;;
59492;SDS011;45497;43.996;22.876;2022-10-31T06:44:32;35.23;;;12.87;;
59492;SDS011;45497;43.996;22.876;2022-10-31T06:46:57;21.17;;;11.77;;
59492;SDS011;45497;43.996;22.876;2022-10-31T06:49:23;26.37;;;11.50;;
59492;SDS011;45497;43.996;22.876;2022-10-31T06:51:49;19.00;;;7.72;;
59492;SDS011;45497;43.996;22.876;2022-10-31T06:54:15;13.43;;;8.15;;
59492;SDS011;45497;43.996;22.876;2022-10-31T06:56:41;17.10;;;7.18;;
59492;SDS011;45497;43.996;22.876;2022-10-31T06:59:07;14.52;;;7.88;;
59492;SDS011;45497;43.996;22.876;2022-10-31T07:01:32;13.20;;;8.03;;
59492;SDS011;45497;43.996;22.876;2022-10-31T07:03:58;14.68;;;8.30;;
59492;SDS011;45497;43.996;22.876;2022-10-31T07:06:24;15.90;;;7.53;;
59492;SDS011;45497;43.996;22.876;2022-10-31T07:08:49;17.00;;;8.10;;
59492;SDS011;45497;43.996;22.876;2022-10-31T07:11:16;13.82;;;7.80;;
59492;SDS011;45497;43.996;22.876;2022-10-31T07:13:42;16.67;;;7.75;;
59492;SDS011;45497;43.996;22.876;2022-10-31T07:16:14;17.50;;;7.90;;
59492;SDS011;45497;43.996;22.876;2022-10-31T07:18:41;15.57;;;7.37;;
59492;SDS011;45497;43.996;22.876;2022-10-31T07:21:06;16.97;;;7.03;;
59492;SDS011;45497;43.996;22.876;2022-10-31T07:23:32;18.17;;;9.50;;
59492;SDS011;45497;43.996;22.876;2022-10-31T07:25:58;20.77;;;9.48;;
59492;SDS011;45497;43.996;22.876;2022-10-31T07:28:25;15.55;;;9.98;;
59492;SDS011;45497;43.996;22.876;2022-10-31T07:30:52;16.27;;;9.27;;
59492;SDS011;45497;43.996;22.876;2022-10-31T07:33:18;12.80;;;8.60;;
59492;SDS011;45497;43.996;22.876;2022-10-31T07:35:43;12.63;;;5.83;;
59492;SDS011;45497;43.996;22.876;2022-10-31T07:38:09;11.35;;;6.20;;
59492;SDS011;45497;43.996;22.876;2022-10-31T07:40:37;13.47;;;6.00;;
59492;SDS011;45497;43.996;22.876;2022-10-31T07:43:03;12.95;;;6.57;;
59492;SDS011;45497;43.996;22.876;2022-10-31T07:45:30;17.48;;;6.88;;
59492;SDS011;45497;43.996;22.876;2022-10-31T07:47:55;13.03;;;6.10;;
59492;SDS011;45497;43.996;22.876;2022-10-31T07:50:25;12.35;;;5.97;;
59492;SDS011;45497;43.996;22.876;2022-10-31T07:52:59;11.70;;;5.70;;
59492;SDS011;45497;43.996;22.876;2022-10-31T07:55:27;12.27;;;6.25;;
59492;SDS011;45497;43.996;22.876;2022-10-31T08:00:22;10.10;;;5.00;;
59492;SDS011;45497;43.996;22.876;2022-10-31T08:02:48;10.93;;;4.90;;
59492;SDS011;45497;43.996;22.876;2022-10-31T08:05:13;7.90;;;5.33;;
59492;SDS011;45497;43.996;22.876;2022-10-31T08:07:39;8.88;;;5.07;;
59492;SDS011;45497;43.996;22.876;2022-10-31T08:10:04;10.07;;;5.53;;
59492;SDS011;45497;43.996;22.876;2022-10-31T08:12:30;8.38;;;4.93;;
59492;SDS011;45497;43.996;22.876;2022-10-31T08:14:56;8.68;;;4.93;;
59492;SDS011;45497;43.996;22.876;2022-10-31T08:17:21;9.27;;;5.57;;
59492;SDS011;45497;43.996;22.876;2022-10-31T08:19:48;9.87;;;5.13;;
59492;SDS011;45497;43.996;22.876;2022-10-31T08:22:13;7.90;;;4.35;;
59492;SDS011;45497;43.996;22.876;2022-10-31T08:24:41;9.43;;;4.57;;
59492;SDS011;45497;43.996;22.876;2022-10-31T08:27:06;8.05;;;4.30;;
59492;SDS011;45497;43.996;22.876;2022-10-31T08:29:32;10.60;;;4.93;;
59492;SDS011;45497;43.996;22.876;2022-10-31T08:31:57;8.70;;;4.50;;
59492;SDS011;45497;43.996;22.876;2022-10-31T08:34:23;8.85;;;4.95;;
59492;SDS011;45497;43.996;22.876;2022-10-31T08:36:49;7.20;;;4.47;;
59492;SDS011;45497;43.996;22.876;2022-10-31T08:39:15;10.80;;;5.23;;
59492;SDS011;45497;43.996;22.876;2022-10-31T08:41:40;11.20;;;4.90;;
59492;SDS011;45497;43.996;22.876;2022-10-31T08:44:07;9.23;;;4.30;;
59492;SDS011;45497;43.996;22.876;2022-10-31T08:46:33;9.23;;;4.47;;
59492;SDS011;45497;43.996;22.876;2022-10-31T08:48:59;11.13;;;5.30;;
59492;SDS011;45497;43.996;22.876;2022-10-31T08:51:24;9.07;;;4.28;;
59492;SDS011;45497;43.996;22.876;2022-10-31T08:53:53;8.95;;;4.50;;
59492;SDS011;45497;43.996;22.876;2022-10-31T08:56:19;9.93;;;4.20;;
59492;SDS011;45497;43.996;22.876;2022-10-31T08:58:44;9.70;;;4.23;;
59492;SDS011;45497;43.996;22.876;2022-10-31T09:01:10;8.70;;;4.80;;
59492;SDS011;45497;43.996;22.876;2022-10-31T09:03:35;8.20;;;4.00;;
59492;SDS011;45497;43.996;22.876;2022-10-31T09:06:01;9.03;;;4.13;;
59492;SDS011;45497;43.996;22.876;2022-10-31T09:08:31;7.80;;;4.05;;
59492;SDS011;45497;43.996;22.876;2022-10-31T09:10:57;8.73;;;4.47;;
59492;SDS011;45497;43.996;22.876;2022-10-31T09:13:23;7.65;;;3.83;;
59492;SDS011;45497;43.996;22.876;2022-10-31T09:15:49;9.27;;;4.60;;
59492;SDS011;45497;43.996;22.876;2022-10-31T09:18:18;8.25;;;4.57;;
59492;SDS011;45497;43.996;22.876;2022-10-31T09:20:45;9.30;;;4.50;;
59492;SDS011;45497;43.996;22.876;2022-10-31T09:23:13;8.10;;;4.72;;
59492;SDS011;45497;43.996;22.876;2022-10-31T09:25:43;7.93;;;4.70;;
59492;SDS011;45497;43.996;22.876;2022-10-31T09:28:11;10.95;;;4.72;;
59492;SDS011;45497;43.996;22.876;2022-10-31T09:30:39;10.63;;;4.78;;
59492;SDS011;45497;43.996;22.876;2022-10-31T09:33:12;9.25;;;4.50;;
59492;SDS011;45497;43.996;22.876;2022-10-31T09:35:38;8.15;;;4.22;;
59492;SDS011;45497;43.996;22.876;2022-10-31T09:38:05;6.88;;;4.30;;
59492;SDS011;45497;43.996;22.876;2022-10-31T09:40:40;7.82;;;4.15;;
59492;SDS011;45497;43.996;22.876;2022-10-31T09:51:54;9.02;;;3.92;;
59492;SDS011;45497;43.996;22.876;2022-10-31T09:57:10;8.30;;;4.07;;
59492;SDS011;45497;43.996;22.876;2022-10-31T09:59:41;7.03;;;3.92;;
59492;SDS011;45497;43.996;22.876;2022-10-31T10:04:56;8.57;;;4.20;;
59492;SDS011;45497;43.996;22.876;2022-10-31T10:09:57;8.15;;;3.90;;
59492;SDS011;45497;43.996;22.876;2022-10-31T10:12:42;6.50;;;3.70;;
59492;SDS011;45497;43.996;22.876;2022-10-31T10:15:35;6.82;;;4.70;;
59492;SDS011;45497;43.996;22.876;2022-10-31T10:28:38;32.00;;;17.58;;
59492;SDS011;45497;43.996;22.876;2022-10-31T10:31:11;7.72;;;3.22;;
59492;SDS011;45497;43.996;22.876;2022-10-31T10:36:50;6.93;;;3.55;;
59492;SDS011;45497;43.996;22.876;2022-10-31T10:42:00;9.10;;;3.63;;
59492;SDS011;45497;43.996;22.876;2022-10-31T10:44:50;8.05;;;4.45;;
59492;SDS011;45497;43.996;22.876;2022-10-31T10:47:40;7.93;;;3.95;;
59492;SDS011;45497;43.996;22.876;2022-10-31T10:50:34;6.47;;;3.70;;
59492;SDS011;45497;43.996;22.876;2022-10-31T10:53:17;7.60;;;3.83;;
59492;SDS011;45497;43.996;22.876;2022-10-31T10:58:40;7.43;;;4.07;;
59492;SDS011;45497;43.996;22.876;2022-10-31T11:01:14;6.55;;;3.63;;
59492;SDS011;45497;43.996;22.876;2022-10-31T11:03:40;7.17;;;3.40;;
59492;SDS011;45497;43.996;22.876;2022-10-31T11:06:16;6.28;;;3.38;;
59492;SDS011;45497;43.996;22.876;2022-10-31T11:08:51;6.23;;;3.57;;
59492;SDS011;45497;43.996;22.876;2022-10-31T11:11:28;4.95;;;3.17;;
59492;SDS011;45497;43.996;22.876;2022-10-31T11:14:03;6.68;;;3.63;;
59492;SDS011;45497;43.996;22.876;2022-10-31T11:16:54;6.10;;;3.42;;
59492;SDS011;45497;43.996;22.876;2022-10-31T11:19:33;8.98;;;3.58;;
59492;SDS011;45497;43.996;22.876;2022-10-31T11:22:06;8.02;;;3.70;;
59492;SDS011;45497;43.996;22.876;2022-10-31T11:24:36;5.82;;;3.20;;
59492;SDS011;45497;43.996;22.876;2022-10-31T11:27:22;7.03;;;3.45;;
59492;SDS011;45497;43.996;22.876;2022-10-31T11:29:49;8.05;;;3.58;;
59492;SDS011;45497;43.996;22.876;2022-10-31T11:32:24;6.83;;;3.27;;
59492;SDS011;45497;43.996;22.876;2022-10-31T11:35:11;5.38;;;3.33;;
59492;SDS011;45497;43.996;22.876;2022-10-31T11:37:43;5.37;;;3.30;;
59492;SDS011;45497;43.996;22.876;2022-10-31T11:40:23;6.40;;;3.43;;
59492;SDS011;45497;43.996;22.876;2022-10-31T11:42:52;6.03;;;3.40;;
59492;SDS011;45497;43.996;22.876;2022-10-31T11:47:49;6.80;;;3.70;;
59492;SDS011;45497;43.996;22.876;2022-10-31T11:50:35;6.10;;;3.85;;
59492;SDS011;45497;43.996;22.876;2022-10-31T11:53:10;9.80;;;3.55;;
59492;SDS011;45497;43.996;22.876;2022-10-31T11:55:42;9.15;;;3.92;;
59492;SDS011;45497;43.996;22.876;2022-10-31T11:58:21;10.65;;;3.85;;
59492;SDS011;45497;43.996;22.876;2022-10-31T12:00:53;8.60;;;3.97;;
59492;SDS011;45497;43.996;22.876;2022-10-31T12:05:50;9.13;;;3.95;;
59492;SDS011;45497;43.996;22.876;2022-10-31T12:08:32;7.18;;;3.58;;
59492;SDS011;45497;43.996;22.876;2022-10-31T12:16:55;6.95;;;3.70;;
59492;SDS011;45497;43.996;22.876;2022-10-31T12:19:35;7.82;;;3.70;;
59492;SDS011;45497;43.996;22.876;2022-10-31T12:22:24;5.57;;;3.10;;
59492;SDS011;45497;43.996;22.876;2022-10-31T12:30:54;4.63;;;2.88;;
59492;SDS011;45497;43.996;22.876;2022-10-31T12:39:23;5.23;;;2.60;;
59492;SDS011;45497;43.996;22.876;2022-10-31T12:42:01;6.70;;;2.90;;
59492;SDS011;45497;43.996;22.876;2022-10-31T12:58:55;7.30;;;3.28;;
59492;SDS011;45497;43.996;22.876;2022-10-31T13:01:27;6.50;;;3.40;;
59492;SDS011;45497;43.996;22.876;2022-10-31T13:03:57;7.15;;;2.95;;
59492;SDS011;45497;43.996;22.876;2022-10-31T13:06:35;6.33;;;3.00;;
59492;SDS011;45497;43.996;22.876;2022-10-31T13:09:10;6.47;;;3.25;;
59492;SDS011;45497;43.996;22.876;2022-10-31T13:11:51;4.57;;;2.80;;
59492;SDS011;45497;43.996;22.876;2022-10-31T13:17:15;5.80;;;2.72;;
59492;SDS011;45497;43.996;22.876;2022-10-31T13:19:51;6.20;;;2.80;;
59492;SDS011;45497;43.996;22.876;2022-10-31T13:22:24;5.75;;;2.55;;
59492;SDS011;45497;43.996;22.876;2022-10-31T13:24:54;8.60;;;2.97;;
59492;SDS011;45497;43.996;22.876;2022-10-31T13:27:34;7.30;;;3.03;;
59492;SDS011;45497;43.996;22.876;2022-10-31T13:30:23;6.60;;;2.78;;
59492;SDS011;45497;43.996;22.876;2022-10-31T13:32:55;7.53;;;2.90;;
59492;SDS011;45497;43.996;22.876;2022-10-31T13:46:44;4.82;;;2.95;;
59492;SDS011;45497;43.996;22.876;2022-10-31T13:49:24;6.55;;;3.03;;
59492;SDS011;45497;43.996;22.876;2022-10-31T13:54:36;5.97;;;3.10;;
59492;SDS011;45497;43.996;22.876;2022-10-31T13:59:54;11.35;;;3.55;;
59492;SDS011;45497;43.996;22.876;2022-10-31T14:02:32;7.45;;;3.25;;
59492;SDS011;45497;43.996;22.876;2022-10-31T14:05:04;8.38;;;3.40;;
59492;SDS011;45497;43.996;22.876;2022-10-31T14:07:43;7.57;;;3.47;;
59492;SDS011;45497;43.996;22.876;2022-10-31T14:13:08;5.38;;;3.22;;
59492;SDS011;45497;43.996;22.876;2022-10-31T14:16:02;4.80;;;3.17;;
59492;SDS011;45497;43.996;22.876;2022-10-31T14:18:43;6.97;;;3.00;;
59492;SDS011;45497;43.996;22.876;2022-10-31T14:24:02;5.57;;;3.10;;
59492;SDS011;45497;43.996;22.876;2022-10-31T14:26:57;6.32;;;3.10;;
59492;SDS011;45497;43.996;22.876;2022-10-31T14:29:44;5.70;;;3.23;;
59492;SDS011;45497;43.996;22.876;2022-10-31T14:34:42;7.47;;;3.05;;
59492;SDS011;45497;43.996;22.876;2022-10-31T14:51:16;9.68;;;3.63;;
59492;SDS011;45497;43.996;22.876;2022-10-31T14:53:49;8.80;;;3.33;;
59492;SDS011;45497;43.996;22.876;2022-10-31T14:56:29;8.10;;;3.10;;
59492;SDS011;45497;43.996;22.876;2022-10-31T14:59:01;11.07;;;4.43;;
59492;SDS011;45497;43.996;22.876;2022-10-31T15:01:30;11.85;;;4.25;;
59492;SDS011;45497;43.996;22.876;2022-10-31T15:04:01;8.98;;;4.18;;
59492;SDS011;45497;43.996;22.876;2022-10-31T15:06:40;9.15;;;3.85;;
59492;SDS011;45497;43.996;22.876;2022-10-31T15:09:23;12.52;;;4.25;;
59492;SDS011;45497;43.996;22.876;2022-10-31T15:12:00;9.13;;;4.65;;
59492;SDS011;45497;43.996;22.876;2022-10-31T15:14:41;9.15;;;4.60;;
59492;SDS011;45497;43.996;22.876;2022-10-31T15:17:08;11.43;;;5.70;;
59492;SDS011;45497;43.996;22.876;2022-10-31T15:19:36;13.25;;;6.28;;
59492;SDS011;45497;43.996;22.876;2022-10-31T15:22:03;14.77;;;6.45;;
59492;SDS011;45497;43.996;22.876;2022-10-31T15:24:37;14.13;;;7.05;;
59492;SDS011;45497;43.996;22.876;2022-10-31T15:27:04;29.58;;;14.73;;
59492;SDS011;45497;43.996;22.876;2022-10-31T15:29:30;49.80;;;25.85;;
59492;SDS011;45497;43.996;22.876;2022-10-31T15:31:57;37.97;;;21.75;;
59492;SDS011;45497;43.996;22.876;2022-10-31T15:36:53;27.13;;;14.02;;
59492;SDS011;45497;43.996;22.876;2022-10-31T15:39:18;25.93;;;12.77;;
59492;SDS011;45497;43.996;22.876;2022-10-31T15:42:02;24.85;;;13.60;;
59492;SDS011;45497;43.996;22.876;2022-10-31T15:44:30;33.33;;;17.83;;
59492;SDS011;45497;43.996;22.876;2022-10-31T15:47:03;29.00;;;15.38;;
59492;SDS011;45497;43.996;22.876;2022-10-31T15:57:39;21.33;;;13.45;;
59492;SDS011;45497;43.996;22.876;2022-10-31T16:02:49;25.57;;;12.63;;
59492;SDS011;45497;43.996;22.876;2022-10-31T16:05:16;22.00;;;11.32;;
59492;SDS011;45497;43.996;22.876;2022-10-31T16:07:51;17.98;;;10.30;;
59492;SDS011;45497;43.996;22.876;2022-10-31T16:10:21;19.92;;;11.85;;
59492;SDS011;45497;43.996;22.876;2022-10-31T16:12:50;26.25;;;17.33;;
59492;SDS011;45497;43.996;22.876;2022-10-31T16:15:17;25.15;;;16.33;;
59492;SDS011;45497;43.996;22.876;2022-10-31T16:17:46;19.83;;;10.93;;
59492;SDS011;45497;43.996;22.876;2022-10-31T16:20:27;18.10;;;10.80;;
59492;SDS011;45497;43.996;22.876;2022-10-31T16:22:56;19.27;;;10.02;;
59492;SDS011;45497;43.996;22.876;2022-10-31T16:25:28;20.40;;;9.40;;
59492;SDS011;45497;43.996;22.876;2022-10-31T16:28:02;16.75;;;7.82;;
59492;SDS011;45497;43.996;22.876;2022-10-31T16:33:05;13.10;;;6.57;;
59492;SDS011;45497;43.996;22.876;2022-10-31T16:35:46;14.73;;;6.50;;
59492;SDS011;45497;43.996;22.876;2022-10-31T16:38:13;17.92;;;6.10;;
59492;SDS011;45497;43.996;22.876;2022-10-31T16:40:39;11.98;;;5.80;;
59492;SDS011;45497;43.996;22.876;2022-10-31T16:43:05;18.10;;;6.72;;
59492;SDS011;45497;43.996;22.876;2022-10-31T16:45:36;15.38;;;6.63;;
59492;SDS011;45497;43.996;22.876;2022-10-31T16:48:11;14.82;;;6.40;;
59492;SDS011;45497;43.996;22.876;2022-10-31T16:50:47;16.88;;;6.68;;
59492;SDS011;45497;43.996;22.876;2022-10-31T16:53:14;17.42;;;10.52;;
59492;SDS011;45497;43.996;22.876;2022-10-31T16:55:42;19.98;;;10.50;;
59492;SDS011;45497;43.996;22.876;2022-10-31T16:58:34;17.52;;;8.40;;
59492;SDS011;45497;43.996;22.876;2022-10-31T17:01:01;17.58;;;11.30;;
59492;SDS011;45497;43.996;22.876;2022-10-31T17:03:30;16.07;;;7.90;;
59492;SDS011;45497;43.996;22.876;2022-10-31T17:05:56;13.85;;;6.40;;
59492;SDS011;45497;43.996;22.876;2022-10-31T17:08:22;16.27;;;6.53;;
59492;SDS011;45497;43.996;22.876;2022-10-31T17:10:52;13.27;;;7.22;;
59492;SDS011;45497;43.996;22.876;2022-10-31T17:13:40;19.42;;;8.52;;
59492;SDS011;45497;43.996;22.876;2022-10-31T17:16:06;18.50;;;9.30;;
59492;SDS011;45497;43.996;22.876;2022-10-31T17:18:33;20.98;;;10.07;;
59492;SDS011;45497;43.996;22.876;2022-10-31T17:21:00;24.63;;;10.73;;
59492;SDS011;45497;43.996;22.876;2022-10-31T17:23:27;28.10;;;10.40;;
59492;SDS011;45497;43.996;22.876;2022-10-31T17:25:54;22.33;;;10.02;;
59492;SDS011;45497;43.996;22.876;2022-10-31T17:28:20;21.75;;;9.57;;